Tikaboo Peak, Nevada Weather observations

Data are for 10 minute period ending at time listed.
 Day   Time   Solar   Ave.   Ave.  Ave.  Vector  Max.   Baro.   Total    
  of    of     Rad.   Air    Rel.  Wind   Wind   Wind  Press.  Precip.   
Year   Day            Temp.  Hum.  Speed  Dir.   Gust                    
2017   (PST)  Kw/m2    F      %     mph   deg.    mph    mb.     in.     
-------------------------------------------------------------------------
  85   20:10   0.00   39.9    58   12.0    20    16.5   759.3    0.00 
  85   20:20   0.00   39.8    56   12.0    32    16.0   759.3    0.00 
  85   20:30   0.00   39.7    55   11.3    42    14.8   759.3    0.00 
  85   20:40   0.00   39.7    54   11.0    34    15.1   759.4    0.00 
  85   20:50   0.00   39.5    54   10.7    32    14.4   759.3    0.00 
  85   21:00   0.00   39.4    54   10.7    26    17.4   759.3    0.00 
  85   21:10   0.00   39.3    55   10.2    23    14.9   759.2    0.00 
  85   21:20   0.00   39.3    54   10.2    24    15.8   759.2    0.00 
  85   21:30   0.00   39.3    54   12.4     8    16.4   759.0    0.00 
  85   21:40   0.00   39.1    55   12.0    11    15.9   759.0    0.00 
  85   21:50   0.00   39.1    55   11.7     0    15.6   758.9    0.00 
  85   22:00   0.00   39.0    56   11.9   354    15.3   758.8    0.00 
  85   22:10   0.00   38.9    57   10.5   357    13.8   758.7    0.00 
  85   22:20   0.00   38.9    57    8.8     2    12.5   758.7    0.00 
  85   22:30   0.00   38.7    59   10.8     0    13.7   758.6    0.00 
  85   22:40   0.00   38.8    60   11.8   353    15.4   758.4    0.00 
  85   22:50   0.00   38.9    61    9.9   353    14.7   758.3    0.00 
  85   23:00   0.00   38.8    61   11.1   345    15.1   758.2    0.00 
  85   23:10   0.00   38.8    61   11.6   342    14.7   758.1    0.00 
  85   23:20   0.00   38.8    62   12.2   344    14.9   757.9    0.00 
  85   23:30   0.00   38.8    62   13.0   345    15.4   757.8    0.00 
  85   23:40   0.00   38.6    62   12.9   343    15.3   757.7    0.00 
  85   23:50   0.00   38.6    62   14.2   341    16.9   757.5    0.00 
  86    0:00   0.00   38.6    62   15.3   346    18.5   757.4    0.00 
  86    0:10   0.00   38.7    63   13.8   350    18.6   757.4    0.00 
  86    0:20   0.00   38.6    63   13.8   343    18.9   757.3    0.00 
  86    0:30   0.00   38.5    63   14.0   348    19.6   757.2    0.00 
  86    0:40   0.00   38.5    64   12.8   349    17.1   757.1    0.00 
  86    0:50   0.00   38.3    64   12.5   342    15.6   757.1    0.00 
  86    1:00   0.00   38.2    64   13.1   341    16.7   757.0    0.00 
  86    1:10   0.00   38.3    64   14.1   340    17.7   756.9    0.00 
  86    1:20   0.00   38.2    64   14.0   346    18.5   756.8    0.00 
  86    1:30   0.00   38.1    63   14.1   344    18.3   756.8    0.00 
  86    1:40   0.00   37.9    64   13.8   348    17.5   756.6    0.00 
  86    1:50   0.00   37.9    62   12.4   346    17.3   756.5    0.00 
  86    2:00   0.00   37.8    63   12.7   348    16.8   756.3    0.00 
  86    2:10   0.00   37.7    62   14.5   348    17.9   756.3    0.00 
  86    2:20   0.00   37.6    62   14.8   345    18.5   756.1    0.00 
  86    2:30   0.00   37.6    62   14.5   347    18.1   755.9    0.00 
  86    2:40   0.00   37.5    61   14.5   346    17.6   755.7    0.00 
  86    2:50   0.00   37.4    62   14.9   354    17.6   755.7    0.00 
  86    3:00   0.00   37.4    62   13.2     1    16.3   755.8    0.00 
  86    3:10   0.00   37.3    62   14.3    17    18.1   755.8    0.00 
  86    3:20   0.00   37.4    62   14.6    29    18.8   755.7    0.00 
  86    3:30   0.00   37.4    62   13.1    43    18.2   755.7    0.00 
  86    3:40   0.00   36.6    67   10.9    75    13.7   755.7    0.00 
  86    3:50   0.00   35.8    69   11.5    71    16.7   755.6    0.00 
  86    4:00   0.00   35.2    75   11.4    76    17.8   755.6    0.00 
  86    4:10   0.00   34.8    76   10.1    76    15.8   755.5    0.00 
  86    4:20   0.00   34.9    77    8.7    80    16.1   755.3    0.01 
  86    4:30   0.00   34.7    80    9.6    84    14.4   755.2    0.00 
  86    4:40   0.00   34.6    81    8.5    83    12.8   755.4    0.00 
  86    4:50   0.00   34.2    82    4.5    90    13.7   755.4    0.00 
  86    5:00   0.00   33.9    86    8.0    85    12.0   755.3    0.00 
  86    5:10   0.00   34.0    85    9.1    80    13.8   755.4    0.00 
  86    5:20   0.00   34.1    86    5.5    86    13.0   755.2    0.00 
  86    5:30   0.00   33.8    86    6.1    90     8.7   755.0    0.00 
  86    5:40   0.00   33.9    84    5.6    93     9.8   755.1    0.00 
  86    5:50   0.01   33.6    86    4.2    96     9.3   755.1    0.00 
  86    6:00   0.02   33.6    87    2.6    82     7.6   755.2    0.00 
  86    6:10   0.03   34.1    86    2.8    97     7.2   755.2    0.00 
  86    6:20   0.04   34.1    87    5.1    96     9.0   755.1    0.00 
  86    6:30   0.08   34.1    88    6.5    92     9.4   755.1    0.00 
  86    6:40   0.13   35.2    87    5.0    89     9.6   755.2    0.00 
  86    6:50   0.15   35.5    85    7.7    80    12.5   755.2    0.01 
  86    7:00   0.12   35.5    85   10.3    75    12.9   758.5    0.00 
  86    7:10   0.14   35.2    86   13.1    66    17.2   755.4    0.00 
  86    7:20   0.21   35.8    86   11.7    71    17.2   755.3    0.00 
  86    7:30   0.11   36.2    86    5.7    78    16.1   755.4    0.00 
  86    7:40   0.02   34.3    91    4.2    83    13.6   755.5    0.00 
  86    7:50   0.01   32.5    95    6.5   106    18.0   755.5    0.00 
  86    8:00   0.02   31.8    97    4.6    92    17.1   755.5    0.00 
  86    8:10   0.10   32.2    97    4.6    88    20.3   755.5    0.00 
  86    8:20   0.28   33.5    96    5.0    81    21.0   755.5    0.02 
  86    8:30   0.22   34.5    91    4.8   110    21.4   755.5    0.02 
  86    8:40   0.35   35.0    89    3.4   106    22.2   755.5    0.00 
  86    8:50   0.36   35.1    86    4.5   114    16.1   755.6    0.00 
  86    9:00   0.55   35.8    83    7.0    87    23.5   755.5    0.00 
  86    9:10   0.56   37.0    78    8.2    86    29.5   755.5    0.00 
  86    9:20   0.73   39.2    75    6.7    94    25.8   755.6    0.00 
  86    9:30   0.67   39.6    73    6.3    98    26.6   755.6    0.00 
  86    9:40   0.79   39.8    70    3.5   127    19.5   755.8    0.00 
  86    9:50   0.82   39.9    67    3.2   125    12.4   756.0    0.00 
  86   10:00   0.84   40.6    65    4.6   110    21.6   756.0    0.00 
  86   10:10   0.61   40.3    67    2.7   169    13.1   756.0    0.00 
  86   10:20   0.83   40.3    72    5.0   120    18.0   756.0    0.00 
  86   10:30   0.71   41.3    70    4.2   106    18.3   756.0    0.00 
  86   10:40   0.56   41.5    70    3.7    88    19.6   756.0    0.00 
  86   10:50   0.39   40.9    71    2.2    72    10.8   756.1    0.00 
  86   11:00   0.45   41.5    70    2.2    96    11.1   756.0    0.00 
  86   11:10   0.33   36.5    84   10.5   168    17.3   755.9    0.00 
  86   11:20   0.61   34.9    93   11.5   178    18.9   755.8    0.00 
  86   11:30   0.72   36.1    89    8.4   157    18.0   755.9    0.00 
  86   11:40   0.84   37.3    83   10.1   138    17.4   755.9    0.00 
  86   11:50   0.64   40.3    77    4.1   124    11.4   755.9    0.00 
  86   12:00   100.00   39.1    77    4.9   131    11.6   755.8    0.00 
  86   12:10   1.00   40.5    76    7.6   125    15.3   755.8    0.00 
  86   12:20   0.63   42.9    67    4.4   104    15.5   755.8    0.00 
  86   12:30   100.00   37.6    77   10.3   156    18.3   755.9    0.00 
  86   12:40   0.53   38.4    77   11.2   117    20.2   755.7    0.00 
  86   12:50   1.11   41.9    68    7.5    98    17.8   755.8    0.00 
  86   13:00   0.82   43.3    64    5.6   104    13.9   755.7    0.00 
  86   13:10   0.92   44.9    59    5.5   103    14.8   755.8    0.00 
  86   13:20   0.87   44.3    57    5.7   109    12.9   755.8    0.00 
  86   13:30   0.72   45.1    54    7.7   105    16.3   755.9    0.00 
  86   13:40   0.45   43.9    52    7.5   117    17.2   755.9    0.00 
  86   13:50   0.72   43.0    58    7.3   114    19.1   755.9    0.00 
  86   14:00   0.62   43.7    56    7.2   126    15.0   755.8    0.00 
  86   14:10   0.84   38.9    72    8.7   153    16.0   755.8    0.00 
  86   14:20   0.35   40.8    69   12.3   116    20.8   755.8    0.00 
  86   14:30   0.19   38.6    72   12.4   118    27.0   755.8    0.00 
  86   14:40   0.09   36.0    76    6.6   120    22.6   755.7    0.01 
  86   14:50   0.17   34.6    78    3.1   179    15.8   755.7    0.00 
  86   15:00   0.26   34.5    75    3.7   154    15.0   755.5    0.00 
  86   15:10   0.43   35.3    75    3.3   146    17.1   755.5    0.00 
  86   15:20   0.48   36.7    74    8.0   109    25.7   755.7    0.00 
  86   15:30   0.43   34.4    82   23.9   113    37.8   755.5    0.00 
  86   15:40   0.25   34.2    80   23.5   116    37.3   755.6    0.00 
  86   15:50   0.16   32.7    83   21.8   115    34.3   755.7    0.00 
  86   16:00   0.26   32.8    80   26.0   114    34.8   755.4    0.00 
  86   16:10   0.23   34.8    74   18.2   107    35.2   755.7    0.00 
  86   16:20   0.15   34.1    72   17.2   113    31.4   755.9    0.00 
  86   16:30   0.19   35.0    70   13.8   109    24.8   755.9    0.00 
  86   16:40   0.20   36.4    67    8.2   103    20.5   756.0    0.00 
  86   16:50   0.17   36.6    67    3.8    83    15.8   756.1    0.00 
  86   17:00   0.10   36.3    66    5.1   105    16.7   756.1    0.00 
  86   17:10   0.05   35.0    68    3.7    42    12.7   756.2    0.00 
  86   17:20   0.02   34.3    69    4.4    81    17.8   756.2    0.00 
  86   17:30   0.01   33.5    72    7.9    99    27.4   756.1    0.00 
  86   17:40   0.00   32.5    74   12.1   118    33.7   756.2    0.00 
  86   17:50   0.01   32.1    74   11.8   103    27.8   756.2    0.00 
  86   18:00   0.00   32.2    74    5.9    83    22.9   756.4    0.00 
  86   18:10   0.00   31.4    83    8.5   114    28.1   756.3    0.00 
  86   18:20   0.00   31.2    85    6.8   104    21.7   756.5    0.00 
  86   18:30   0.00   31.0    80   14.4   114    28.5   756.5    0.00 
  86   18:40   0.00   31.1    71   19.4   115    36.0   756.7    0.00 
  86   18:50   0.00   31.0    68   20.0   117    32.4   756.8    0.00 
  86   19:00   0.00   30.8    69   21.0   110    35.3   756.9    0.00 
  86   19:10   0.00   30.5    72   17.4   107    34.3   757.0    0.00 
  86   19:20   0.00   30.1    72   15.0   109    29.8   757.2    0.00 
  86   19:30   0.00   29.9    70   16.4   115    31.0   757.2    0.00 
  86   19:40   0.00   29.7    71   17.6   109    31.0   757.2    0.00 
  86   19:50   0.00   29.5    70   20.0   110    33.0   757.2    0.00 
  86   20:00   0.00   29.6    68   20.5   114    32.4   757.4    0.00 

Return to Tikaboo Peak graphs page.


Western Regional Climate Center,wrcc@dri.edu